Time;durP1;ratioP1;P1;durP2;ratioP2;P2;SDS_P1;SDS_P2;PMS_P1;PMS_P2;Temp;Humidity;BMP_temperature;BMP_pressure;BME280_temperature;BME280_humidity;BME280_pressure;Samples;Min_cycle;Max_cycle;Signal;HPM_P1;HPM_P2
2023/08/13 00:01:08;;;;;;;3.20;1.80;;;;;;;;;;5071293;28;20076;-36
2023/08/13 00:03:34;;;;;;;2.45;1.85;;;21.40;80.60;;;;;;5064283;28;20052;-36
2023/08/13 00:06:02;;;;;;;3.15;1.60;;;;;;;;;;5062239;28;20131;-37
2023/08/13 00:08:29;;;;;;;3.15;1.63;;;;;;;;;;5071504;28;20048;-35
2023/08/13 00:10:57;;;;;;;3.45;1.70;;;22.40;86.10;;;;;;5071192;28;20131;-37
2023/08/13 00:13:24;;;;;;;3.92;1.67;;;21.60;86.10;;;;;;5070974;28;20556;-39
2023/08/13 00:15:51;;;;;;;3.25;1.77;;;;;;;;;;5071346;28;20584;-36
2023/08/13 00:18:17;;;;;;;3.38;1.50;;;22.00;86.10;;;;;;5070865;28;20131;-34
2023/08/13 00:20:45;;;;;;;3.63;1.60;;;;;;;;;;5063781;28;20120;-36
2023/08/13 00:23:12;;;;;;;2.83;1.40;;;21.80;85.50;;;;;;5051083;28;20068;-38
2023/08/13 00:25:39;;;;;;;2.95;1.60;;;;;;;;;;5051321;28;20059;-36
2023/08/13 00:28:07;;;;;;;2.25;1.52;;;21.70;85.30;;;;;;5051376;28;20131;-36
2023/08/13 00:30:35;;;;;;;2.83;1.60;;;21.90;76.50;;;;;;5050645;28;20124;-34
2023/08/13 00:33:02;;;;;;;3.30;1.73;;;21.90;85.40;;;;;;5050873;28;20084;-36
2023/08/13 00:35:28;;;;;;;2.67;1.70;;;22.50;85.70;;;;;;5051147;28;20136;-36
2023/08/13 00:37:55;;;;;;;2.83;1.52;;;22.00;72.40;;;;;;5058092;28;20099;-33
2023/08/13 00:40:22;;;;;;;3.00;1.60;;;21.80;85.70;;;;;;5050988;28;20124;-35
2023/08/13 00:42:49;;;;;;;4.28;1.50;;;21.80;85.70;;;;;;5050439;28;20491;-34
2023/08/13 00:45:17;;;;;;;3.40;1.60;;;21.70;68.90;;;;;;5050827;28;20128;-35
2023/08/13 00:47:44;;;;;;;2.88;1.63;;;;;;;;;;5050971;28;20466;-33
2023/08/13 00:50:11;;;;;;;2.67;1.65;;;21.50;85.20;;;;;;5050743;28;20049;-30
2023/08/13 00:52:39;;;;;;;2.80;1.55;;;;;;;;;;5050531;28;20135;-30
2023/08/13 00:55:06;;;;;;;2.85;1.65;;;22.20;85.50;;;;;;5052024;28;20159;-30
2023/08/13 00:57:34;;;;;;;2.20;1.42;;;;;;;;;;5050892;28;20049;-31
2023/08/13 01:00:01;;;;;;;2.83;1.80;;;;;;;;;;5063146;28;20123;-30
2023/08/13 01:02:29;;;;;;;2.97;1.90;;;21.30;85.50;;;;;;5070524;28;20059;-30
2023/08/13 01:04:56;;;;;;;3.33;1.63;;;;;;;;;;5070631;28;20132;-31
2023/08/13 01:07:26;;;;;;;3.08;1.60;;;21.60;85.80;;;;;;5070635;28;20564;-30
2023/08/13 01:09:55;;;;;;;2.83;1.58;;;21.80;72.70;;;;;;5070625;28;20128;-32
2023/08/13 01:12:24;;;;;;;3.40;1.80;;;21.20;72.00;;;;;;5057821;28;20136;-30
2023/08/13 01:15:03;;;;;;;3.22;1.67;;;21.70;68.80;;;;;;5068403;28;20050;-33
2023/08/13 01:17:31;;;;;;;4.07;1.70;;;21.70;68.90;;;;;;5070584;28;20068;-30
2023/08/13 01:19:59;;;;;;;3.05;1.70;;;21.70;85.70;;;;;;5070226;28;20573;-30
2023/08/13 01:22:27;;;;;;;2.15;1.58;;;21.70;68.90;;;;;;5069917;28;20053;-32
2023/08/13 01:24:54;;;;;;;2.72;1.60;;;21.40;85.30;;;;;;5068675;28;20127;-30
2023/08/13 01:27:23;;;;;;;4.20;1.85;;;21.70;68.80;;;;;;5070353;28;20132;-36
2023/08/13 01:29:53;;;;;;;5.00;1.90;;;22.30;85.40;;;;;;5070474;28;20048;-31
2023/08/13 01:32:21;;;;;;;4.50;1.90;;;;;;;;;;5074091;28;20131;-31
2023/08/13 01:34:47;;;;;;;3.65;1.60;;;21.90;85.90;;;;;;5074379;28;20053;-30
2023/08/13 01:37:14;;;;;;;3.05;1.70;;;;;;;;;;5073811;28;20474;-34
2023/08/13 01:39:42;;;;;;;3.92;1.65;;;21.30;69.50;;;;;;5055856;28;20131;-32
2023/08/13 01:42:11;;;;;;;2.72;1.42;;;;;;;;;;5054396;28;20132;-33
2023/08/13 01:44:38;;;;;;;1.95;1.45;;;;;;;;;;5064742;28;20048;-31
2023/08/13 01:47:06;;;;;;;2.95;1.50;;;;;;;;;;5074209;28;20128;-30
2023/08/13 01:49:32;;;;;;;2.58;1.60;;;21.80;85.20;;;;;;5073851;28;20383;-30
2023/08/13 01:51:59;;;;;;;3.33;1.95;;;21.50;75.80;;;;;;5073826;28;20131;-30
2023/08/13 01:54:26;;;;;;;4.05;1.70;;;22.00;73.20;;;;;;5070539;28;20580;-31
2023/08/13 01:56:54;;;;;;;2.55;1.67;;;21.20;75.40;;;;;;5053939;28;20138;-30
2023/08/13 01:59:21;;;;;;;4.03;1.67;;;22.60;85.40;;;;;;5071498;28;20066;-30
2023/08/13 02:01:47;;;;;;;2.42;1.33;;;21.50;85.70;;;;;;5073724;28;20192;-30
2023/08/13 02:04:14;;;;;;;2.25;1.40;;;21.10;75.10;;;;;;5073590;28;20109;-31
2023/08/13 02:06:41;;;;;;;2.38;1.70;;;21.30;80.90;;;;;;5073698;28;20564;-30
2023/08/13 02:09:08;;;;;;;2.70;1.58;;;;;;;;;;5073953;28;20139;-31
2023/08/13 02:11:35;;;;;;;5.13;2.08;;;;;;;;;;5072992;28;20127;-31
2023/08/13 02:14:03;;;;;;;2.42;1.50;;;21.60;68.80;;;;;;5073311;28;20131;-34
2023/08/13 02:16:30;;;;;;;3.38;1.60;;;;;;;;;;5073619;28;20140;-36
2023/08/13 02:18:57;;;;;;;3.72;2.10;;;21.60;72.90;;;;;;5073356;28;20127;-30
2023/08/13 02:21:24;;;;;;;5.25;1.58;;;22.40;86.10;;;;;;5073180;28;20131;-30
2023/08/13 02:23:51;;;;;;;4.38;1.73;;;;;;;;;;5073448;28;20326;-33
2023/08/13 02:26:17;;;;;;;2.83;1.77;;;21.60;72.30;;;;;;5073327;28;20128;-30
2023/08/13 02:28:45;;;;;;;3.72;1.70;;;21.50;85.40;;;;;;5071572;28;20123;-30
2023/08/13 02:31:13;;;;;;;3.63;1.73;;;22.10;85.70;;;;;;5072924;28;20124;-32
2023/08/13 02:33:40;;;;;;;3.67;1.90;;;22.00;85.80;;;;;;5073173;28;20127;-30
2023/08/13 02:36:07;;;;;;;3.13;1.50;;;;;;;;;;5064763;28;20140;-34
2023/08/13 02:38:34;;;;;;;3.33;1.65;;;21.60;85.40;;;;;;5073701;28;20131;-30
2023/08/13 02:41:00;;;;;;;3.03;1.40;;;21.90;85.50;;;;;;5072741;28;20666;-30
2023/08/13 02:43:28;;;;;;;3.30;1.60;;;21.50;68.70;;;;;;5072021;28;20136;-34
2023/08/13 02:45:54;;;;;;;2.75;1.70;;;21.50;85.20;;;;;;5072259;28;20044;-29
2023/08/13 02:48:22;;;;;;;4.57;1.58;;;21.50;68.70;;;;;;5072830;28;20127;-34
2023/08/13 02:50:49;;;;;;;3.05;1.75;;;;;;;;;;5072951;28;20147;-35
2023/08/13 02:53:16;;;;;;;3.55;1.70;;;21.10;85.10;;;;;;5072861;28;20123;-30
2023/08/13 02:55:43;;;;;;;2.72;1.60;;;;;;;;;;5072928;28;20127;-32
2023/08/13 02:58:10;;;;;;;2.55;1.50;;;21.50;85.00;;;;;;5072997;28;20136;-30
2023/08/13 03:00:37;;;;;;;3.30;1.70;;;;;;;;;;5072515;28;20119;-32
2023/08/13 03:03:04;;;;;;;4.03;2.10;;;21.30;73.90;;;;;;5071756;28;20131;-31
2023/08/13 03:05:32;;;;;;;5.05;2.00;;;21.70;84.90;;;;;;5052362;28;20132;-30
2023/08/13 03:07:59;;;;;;;4.70;2.00;;;20.80;76.10;;;;;;5052744;28;20577;-30
2023/08/13 03:10:26;;;;;;;3.22;1.60;;;;;;;;;;5052558;28;20133;-34
2023/08/13 03:12:53;;;;;;;3.45;1.67;;;21.50;84.70;;;;;;5052378;28;20085;-30
2023/08/13 03:15:19;;;;;;;3.78;1.83;;;22.30;85.00;;;;;;5051699;28;20455;-30
2023/08/13 03:17:46;;;;;;;3.17;1.52;;;;;;;;;;5052355;28;20073;-35
2023/08/13 03:20:13;;;;;;;3.55;1.48;;;;;;;;;;5051784;28;20120;-33
2023/08/13 03:22:42;;;;;;;3.75;1.60;;;21.40;68.40;;;;;;5052299;28;20128;-34
2023/08/13 03:25:09;;;;;;;3.97;1.88;;;21.40;68.40;;;;;;5052005;28;20137;-35
2023/08/13 03:27:37;;;;;;;4.93;1.60;;;;;;;;;;5060031;28;20127;-30
2023/08/13 03:30:04;;;;;;;1.88;1.25;;;21.30;84.80;;;;;;5064346;28;20044;-30
2023/08/13 03:32:31;;;;;;;4.57;1.95;;;21.10;76.20;;;;;;5071998;28;20044;-32
2023/08/13 03:34:58;;;;;;;4.45;2.20;;;;;;;;;;5072372;28;20123;-30
2023/08/13 03:37:25;;;;;;;4.03;1.50;;;;;;;;;;5069010;28;20076;-34
2023/08/13 03:39:53;;;;;;;3.92;1.73;;;21.10;79.10;;;;;;5071424;28;20137;-30
2023/08/13 03:42:19;;;;;;;3.03;1.90;;;22.00;85.90;;;;;;5071910;28;20251;-30
2023/08/13 03:44:46;;;;;;;2.95;1.60;;;21.10;84.70;;;;;;5071625;28;20132;-30
2023/08/13 03:47:13;;;;;;;2.65;1.52;;;;;;;;;;5072026;28;20053;-33
2023/08/13 03:49:40;;;;;;;2.88;1.50;;;21.90;85.10;;;;;;5071949;28;20160;-30
2023/08/13 03:52:09;;;;;;;4.78;1.70;;;;;;;;;;5056428;28;20147;-34
2023/08/13 03:54:36;;;;;;;3.65;1.60;;;21.30;84.80;;;;;;5051556;28;20128;-30
2023/08/13 03:57:04;;;;;;;3.97;1.60;;;21.00;69.80;;;;;;5051648;28;20096;-30
2023/08/13 03:59:31;;;;;;;4.53;1.70;;;21.80;84.90;;;;;;5060490;28;20056;-33
2023/08/13 04:01:58;;;;;;;2.85;1.58;;;20.80;74.30;;;;;;5071844;28;20131;-31
2023/08/13 04:04:25;;;;;;;3.65;1.60;;;20.40;84.50;;;;;;5071369;28;20103;-30
2023/08/13 04:06:52;;;;;;;3.53;1.70;;;21.80;74.00;;;;;;5071532;28;20127;-31
2023/08/13 04:09:19;;;;;;;3.00;1.73;;;21.40;84.90;;;;;;5070941;28;20140;-32
2023/08/13 04:11:45;;;;;;;4.28;1.67;;;21.30;85.70;;;;;;5051821;28;20132;-31
2023/08/13 04:14:13;;;;;;;5.55;1.75;;;21.80;76.10;;;;;;5051209;28;20131;-30
2023/08/13 04:16:40;;;;;;;2.45;1.63;;;;;;;;;;5051639;28;20132;-32
2023/08/13 04:19:07;;;;;;;4.07;1.63;;;21.70;85.90;;;;;;5051541;28;20136;-29
2023/08/13 04:21:34;;;;;;;3.28;1.77;;;21.30;73.60;;;;;;5051150;28;20127;-34
2023/08/13 04:24:01;;;;;;;5.68;1.70;;;21.30;71.50;;;;;;5050934;28;20135;-31
2023/08/13 04:26:27;;;;;;;3.90;1.80;;;21.40;84.60;;;;;;5052493;28;20128;-29
2023/08/13 04:28:55;;;;;;;3.30;1.70;;;;;;;;;;5051075;28;20131;-34
2023/08/13 04:31:23;;;;;;;2.80;1.70;;;21.60;85.30;;;;;;5051235;28;20128;-39
2023/08/13 04:33:49;;;;;;;4.82;1.77;;;20.70;84.40;;;;;;5051099;28;20132;-34
2023/08/13 04:36:16;;;;;;;3.20;1.73;;;21.10;84.70;;;;;;5054503;28;20119;-38
2023/08/13 04:38:43;;;;;;;3.90;1.92;;;;;;;;;;5070586;28;20091;-32
2023/08/13 04:41:10;;;;;;;5.03;1.90;;;20.60;79.70;;;;;;5069834;28;20123;-35
2023/08/13 04:43:37;;;;;;;2.92;1.60;;;;;;;;;;5071135;28;20234;-33
2023/08/13 04:46:04;;;;;;;4.82;1.70;;;21.40;85.30;;;;;;5071000;28;20127;-35
2023/08/13 04:48:45;;;;;;;4.20;1.75;;;22.40;72.50;;;;;;5070973;28;20136;-38
2023/08/13 04:51:12;;;;;;;3.30;1.55;;;21.20;68.10;;;;;;5070520;28;20123;-35
2023/08/13 04:53:39;;;;;;;3.28;1.73;;;20.30;84.60;;;;;;5070483;28;20131;-37
2023/08/13 04:56:06;;;;;;;3.58;1.83;;;21.20;72.00;;;;;;5070663;28;20048;-32
2023/08/13 04:58:32;;;;;;;2.63;1.70;;;21.50;72.10;;;;;;5071064;28;20080;-38
2023/08/13 05:00:59;;;;;;;6.13;1.80;;;;;;;;;;5070460;28;20147;-35
2023/08/13 05:03:27;;;;;;;5.00;1.80;;;;;;;;;;5070080;28;20121;-34
2023/08/13 05:05:55;;;;;;;3.22;1.77;;;21.20;68.10;;;;;;5069547;28;20123;-32
2023/08/13 05:08:22;;;;;;;4.40;1.60;;;;;;;;;;5070681;28;20553;-32
2023/08/13 05:10:48;;;;;;;2.97;1.80;;;20.70;84.70;;;;;;5056789;28;20562;-37
2023/08/13 05:13:15;;;;;;;5.28;1.80;;;21.40;79.50;;;;;;5050354;28;20076;-39
2023/08/13 05:15:42;;;;;;;4.80;1.98;;;;;;;;;;5050298;28;20129;-33
2023/08/13 05:18:09;;;;;;;4.13;1.80;;;21.80;80.50;;;;;;5050561;28;20124;-36
2023/08/13 05:20:36;;;;;;;3.67;1.80;;;;;;;;;;5050469;28;20132;-32
2023/08/13 05:23:04;;;;;;;3.00;1.75;;;20.90;84.30;;;;;;5050154;28;20826;-38
2023/08/13 05:25:36;;;;;;;3.25;1.95;;;;;;;;;;5050393;28;20135;-35
2023/08/13 05:28:03;;;;;;;4.55;1.90;;;20.20;79.20;;;;;;5051776;28;20041;-36
2023/08/13 05:30:30;;;;;;;4.32;2.00;;;;;;;;;;5050218;28;20131;-37
2023/08/13 05:32:57;;;;;;;2.67;1.40;;;;;;;;;;5050066;28;20048;-36
2023/08/13 05:35:24;;;;;;;4.57;1.83;;;21.90;85.40;;;;;;5050519;28;20132;-37
2023/08/13 05:37:51;;;;;;;4.50;1.80;;;;;;;;;;5066325;28;20131;-36
2023/08/13 05:40:19;;;;;;;4.65;1.80;;;21.00;85.40;;;;;;5070055;28;20497;-39
2023/08/13 05:42:46;;;;;;;4.63;1.70;;;22.30;85.50;;;;;;5069796;28;20478;-36
2023/08/13 05:45:13;;;;;;;2.53;1.73;;;;;;;;;;5069603;28;20051;-35
2023/08/13 05:47:41;;;;;;;2.45;1.58;;;22.30;85.30;;;;;;5070230;28;20052;-37
2023/08/13 05:50:08;;;;;;;2.97;1.85;;;20.70;84.80;;;;;;5070118;28;20049;-39
2023/08/13 05:52:35;;;;;;;3.90;1.73;;;;;;;;;;5070189;28;20112;-35
2023/08/13 05:55:02;;;;;;;4.10;1.70;;;21.70;84.90;;;;;;5070119;28;20083;-38
2023/08/13 05:57:30;;;;;;;3.63;1.83;;;21.20;68.20;;;;;;5069930;28;20235;-34
2023/08/13 05:59:57;;;;;;;2.92;1.70;;;20.90;84.40;;;;;;5069988;28;20242;-37
2023/08/13 06:02:24;;;;;;;3.90;1.67;;;21.70;70.50;;;;;;5063148;28;20053;-37
2023/08/13 06:04:50;;;;;;;3.13;1.73;;;21.10;84.40;;;;;;5060674;28;20052;-40
2023/08/13 06:07:17;;;;;;;3.60;1.70;;;;;;;;;;5070179;28;20128;-36
2023/08/13 06:09:44;;;;;;;2.47;1.58;;;;;;;;;;5069773;28;20123;-35
2023/08/13 06:12:11;;;;;;;3.05;2.15;;;21.70;84.90;;;;;;5069803;28;20123;-37
2023/08/13 06:14:39;;;;;;;4.15;1.88;;;21.00;75.40;;;;;;5069963;28;20135;-35
2023/08/13 06:17:06;;;;;;;3.22;1.65;;;21.50;77.90;;;;;;5070188;28;20135;-36
2023/08/13 06:19:32;;;;;;;3.67;1.77;;;21.10;84.60;;;;;;5069652;28;20557;-37
2023/08/13 06:22:00;;;;;;;3.00;1.63;;;;;;;;;;5055867;28;20132;-35
2023/08/13 06:24:26;;;;;;;5.28;1.90;;;21.30;84.50;;;;;;5053382;28;20128;-36
2023/08/13 06:26:53;;;;;;;4.13;1.63;;;;;;;;;;5065799;28;20139;-37
2023/08/13 06:29:20;;;;;;;3.28;1.73;;;;;;;;;;5057890;28;20127;-35
2023/08/13 06:31:49;;;;;;;3.70;1.75;;;21.00;84.80;;;;;;5061383;28;20041;-35
2023/08/13 06:34:16;;;;;;;3.90;1.98;;;;;;;;;;5072921;28;20572;-34
2023/08/13 06:36:43;;;;;;;2.05;1.30;;;;;;;;;;5069928;28;20437;-33
2023/08/13 06:39:09;;;;;;;3.10;1.85;;;22.10;71.70;;;;;;5068980;28;20123;-32
2023/08/13 06:41:37;;;;;;;4.13;1.70;;;;;;;;;;5060892;28;20080;-34
2023/08/13 06:44:04;;;;;;;4.63;1.65;;;21.20;84.40;;;;;;5067170;28;20127;-31
2023/08/13 06:46:31;;;;;;;2.80;1.80;;;;;;;;;;5073141;28;20510;-32
2023/08/13 06:48:59;;;;;;;3.72;1.77;;;21.50;85.00;;;;;;5073245;28;20119;-35
2023/08/13 06:51:26;;;;;;;4.57;2.03;;;20.80;84.40;;;;;;5072673;28;20096;-37
2023/08/13 06:53:52;;;;;;;3.45;1.80;;;21.00;85.50;;;;;;5060511;28;20124;-35
2023/08/13 06:56:19;;;;;;;2.72;1.52;;;21.30;75.60;;;;;;5052965;28;20132;-34
2023/08/13 06:58:46;;;;;;;5.03;2.10;;;21.60;85.20;;;;;;5055197;28;20160;-36
2023/08/13 07:01:13;;;;;;;3.03;1.80;;;;;;;;;;5072587;28;20140;-37
2023/08/13 07:03:41;;;;;;;3.03;1.70;;;21.50;83.00;;;;;;5072715;28;20132;-36
2023/08/13 07:06:09;;;;;;;3.42;1.80;;;20.80;85.40;;;;;;5072997;28;20048;-38
2023/08/13 07:08:36;;;;;;;5.53;2.13;;;;;;;;;;5072568;28;20139;-38
2023/08/13 07:11:03;;;;;;;3.55;1.70;;;21.50;85.80;;;;;;5057782;28;20124;-40
2023/08/13 07:13:30;;;;;;;5.03;1.85;;;;;;;;;;5052565;28;20131;-37
2023/08/13 07:15:57;;;;;;;3.63;1.95;;;21.40;85.50;;;;;;5052664;28;20127;-38
2023/08/13 07:18:24;;;;;;;3.88;1.70;;;21.30;68.40;;;;;;5052182;28;20124;-32
2023/08/13 07:20:50;;;;;;;4.43;1.83;;;21.20;85.20;;;;;;5059491;28;20127;-36
2023/08/13 07:23:18;;;;;;;2.30;1.65;;;21.30;68.40;;;;;;5061991;28;20132;-35
2023/08/13 07:25:46;;;;;;;3.40;1.70;;;21.10;80.90;;;;;;5052378;28;20084;-37
2023/08/13 07:28:12;;;;;;;3.88;1.80;;;21.30;84.90;;;;;;5058972;28;20049;-38
2023/08/13 07:30:39;;;;;;;3.90;1.70;;;21.90;86.10;;;;;;5060941;28;20108;-39
2023/08/13 07:33:06;;;;;;;6.13;1.92;;;;;;;;;;5051745;28;20573;-33
2023/08/13 07:35:33;;;;;;;4.72;1.75;;;21.10;84.90;;;;;;5059099;28;20083;-39
2023/08/13 07:38:00;;;;;;;3.38;1.77;;;;;;;;;;5071558;28;20127;-33
2023/08/13 07:40:29;;;;;;;3.85;1.80;;;21.10;85.10;;;;;;5071978;28;20136;-39
2023/08/13 07:42:58;;;;;;;4.85;1.80;;;21.30;68.50;;;;;;5059693;28;20068;-34
2023/08/13 07:45:25;;;;;;;3.17;1.90;;;20.80;71.30;;;;;;5052023;28;20051;-36
2023/08/13 07:47:53;;;;;;;3.25;1.80;;;;;;;;;;5056039;28;20452;-36
2023/08/13 07:50:20;;;;;;;6.15;2.22;;;22.10;85.00;;;;;;5071274;28;20080;-39
2023/08/13 07:52:47;;;;;;;4.22;1.88;;;21.20;75.60;;;;;;5071436;28;20135;-37
2023/08/13 07:55:14;;;;;;;5.97;2.00;;;21.30;84.40;;;;;;5069783;28;20123;-36
2023/08/13 07:57:42;;;;;;;4.95;1.75;;;21.30;84.90;;;;;;5065280;28;20119;-38
2023/08/13 08:00:10;;;;;;;3.28;1.73;;;22.60;75.70;;;;;;5070355;28;20056;-35
2023/08/13 08:02:37;;;;;;;3.97;2.10;;;22.30;69.10;;;;;;5062587;28;20116;-36
2023/08/13 08:05:05;;;;;;;5.05;2.05;;;21.40;84.90;;;;;;5062354;28;20149;-37
2023/08/13 08:07:32;;;;;;;4.30;1.90;;;;;;;;;;5069699;28;20490;-36
2023/08/13 08:09:59;;;;;;;3.05;1.70;;;20.40;72.60;;;;;;5071755;28;20127;-36
2023/08/13 08:12:26;;;;;;;3.20;1.73;;;21.80;80.60;;;;;;5071170;28;20529;-36
2023/08/13 08:14:54;;;;;;;3.97;2.10;;;21.90;85.20;;;;;;5071344;28;20053;-37
2023/08/13 08:17:21;;;;;;;4.50;1.90;;;21.10;84.90;;;;;;5070930;28;20155;-39
2023/08/13 08:19:48;;;;;;;4.25;1.60;;;21.50;74.70;;;;;;5055520;28;20132;-39
2023/08/13 08:22:15;;;;;;;3.33;1.45;;;;;;;;;;5051098;28;20040;-33
2023/08/13 08:24:42;;;;;;;2.95;1.80;;;22.30;82.00;;;;;;5051681;28;20124;-37
2023/08/13 08:27:09;;;;;;;2.72;1.60;;;21.50;68.40;;;;;;5051066;28;20481;-36
2023/08/13 08:29:36;;;;;;;3.00;1.75;;;21.20;84.10;;;;;;5051330;28;20128;-37
2023/08/13 08:32:05;;;;;;;3.45;1.92;;;21.60;75.70;;;;;;5059156;28;20067;-36
2023/08/13 08:34:32;;;;;;;2.75;1.60;;;22.10;85.10;;;;;;5060524;28;20079;-39
2023/08/13 08:36:58;;;;;;;3.47;1.42;;;21.50;82.50;;;;;;5062555;28;20519;-38
2023/08/13 08:39:25;;;;;;;3.58;1.73;;;;;;;;;;5070985;28;20128;-35
2023/08/13 08:41:53;;;;;;;2.58;1.42;;;21.40;71.40;;;;;;5070485;28;20052;-38
2023/08/13 08:44:21;;;;;;;3.20;1.45;;;23.10;85.10;;;;;;5070889;28;20476;-37
2023/08/13 08:46:48;;;;;;;3.55;1.60;;;21.70;83.80;;;;;;5070720;28;20052;-35
2023/08/13 08:49:17;;;;;;;2.63;1.67;;;21.30;84.40;;;;;;5069943;28;20127;-39
2023/08/13 08:51:43;;;;;;;2.85;1.73;;;21.50;78.50;;;;;;5071234;28;20127;-37
2023/08/13 08:54:11;;;;;;;2.78;1.50;;;;;;;;;;5070709;28;20143;-33
2023/08/13 08:56:37;;;;;;;3.75;1.80;;;21.80;75.70;;;;;;5071141;28;20131;-37
2023/08/13 08:59:05;;;;;;;3.58;1.60;;;21.80;84.50;;;;;;5070565;28;20075;-39
2023/08/13 09:01:32;;;;;;;3.67;1.40;;;22.00;69.50;;;;;;5070907;28;20153;-38
2023/08/13 09:03:59;;;;;;;2.28;1.52;;;;;;;;;;5069233;28;20488;-32
2023/08/13 09:06:42;;;;;;;2.90;1.58;;;21.70;83.50;;;;;;5070764;28;20492;-36
2023/08/13 09:09:08;;;;;;;2.92;1.65;;;21.70;83.50;;;;;;5063293;28;20127;-35
2023/08/13 09:11:35;;;;;;;2.38;1.60;;;22.20;70.20;;;;;;5059634;28;20051;-37
2023/08/13 09:14:02;;;;;;;6.63;1.50;;;;;;;;;;5059139;28;20137;-37
2023/08/13 09:16:29;;;;;;;3.35;1.80;;;;;;;;;;5062045;28;20499;-36
2023/08/13 09:18:57;;;;;;;4.00;1.67;;;;;;;;;;5059615;28;20585;-36
2023/08/13 09:21:28;;;;;;;3.30;1.60;;;22.10;83.30;;;;;;5070374;28;20049;-35
2023/08/13 09:23:55;;;;;;;3.10;1.50;;;22.50;83.00;;;;;;5054831;28;20405;-37
2023/08/13 09:26:22;;;;;;;3.45;1.58;;;;;;;;;;5050076;28;20591;-35
2023/08/13 09:28:49;;;;;;;2.55;1.55;;;;;;;;;;5057095;28;20554;-35
2023/08/13 09:31:17;;;;;;;3.67;1.55;;;22.90;79.20;;;;;;5050360;28;20478;-38
2023/08/13 09:33:43;;;;;;;1.75;1.40;;;22.20;82.70;;;;;;5050073;28;20128;-39
2023/08/13 09:36:10;;;;;;;3.60;1.58;;;23.50;71.10;;;;;;5052652;28;20123;-37
2023/08/13 09:38:38;;;;;;;2.05;1.50;;;22.50;66.20;;;;;;5070118;28;20593;-36
2023/08/13 09:41:05;;;;;;;3.05;1.50;;;22.60;72.00;;;;;;5067640;28;20131;-37
2023/08/13 09:43:32;;;;;;;3.97;1.63;;;22.70;82.90;;;;;;5054918;28;20140;-37
2023/08/13 09:45:59;;;;;;;2.00;1.23;;;22.50;73.40;;;;;;5059812;28;20124;-35
2023/08/13 09:48:26;;;;;;;2.92;1.70;;;;;;;;;;5058447;28;20151;-37
2023/08/13 09:50:53;;;;;;;2.50;1.30;;;22.90;82.70;;;;;;5060219;28;20123;-39
2023/08/13 09:53:20;;;;;;;3.03;1.40;;;;;;;;;;5058208;28;20119;-37
2023/08/13 09:55:51;;;;;;;1.80;1.25;;;22.80;83.10;;;;;;5055145;28;20490;-37
2023/08/13 09:58:18;;;;;;;2.65;1.50;;;23.50;82.60;;;;;;5062401;28;20132;-36
2023/08/13 10:00:45;;;;;;;3.38;1.42;;;;;;;;;;5064659;28;20044;-35
2023/08/13 10:03:13;;;;;;;3.55;1.65;;;;;;;;;;5061521;28;20128;-36
2023/08/13 10:05:41;;;;;;;3.08;1.40;;;22.60;73.40;;;;;;5061459;28;20135;-36
2023/08/13 10:08:08;;;;;;;3.97;1.48;;;22.40;81.90;;;;;;5065340;28;20476;-35
2023/08/13 10:10:35;;;;;;;1.70;1.27;;;;;;;;;;5062847;28;20135;-34
2023/08/13 10:13:04;;;;;;;1.65;1.30;;;23.00;83.00;;;;;;5060853;28;20052;-37
2023/08/13 10:15:30;;;;;;;3.42;1.50;;;22.10;75.00;;;;;;5061305;28;20083;-38
2023/08/13 10:17:57;;;;;;;3.10;1.60;;;;;;;;;;5072153;28;20502;-34
2023/08/13 10:20:25;;;;;;;2.30;1.30;;;23.90;82.80;;;;;;5073738;28;20613;-39
2023/08/13 10:22:51;;;;;;;4.70;1.80;;;22.30;74.70;;;;;;5073190;28;20504;-35
2023/08/13 10:25:28;;;;;;;2.28;1.45;;;22.60;66.20;;;;;;5073388;28;20135;-36
2023/08/13 10:27:55;;;;;;;2.92;1.77;;;22.60;69.80;;;;;;5053694;28;20130;-39
2023/08/13 10:30:23;;;;;;;2.67;1.42;;;22.60;66.20;;;;;;5053382;28;20135;-35
2023/08/13 10:32:50;;;;;;;2.58;1.30;;;22.50;69.10;;;;;;5054160;28;20144;-37
2023/08/13 10:35:24;;;;;;;3.60;1.50;;;22.30;82.10;;;;;;5064347;28;20052;-38
2023/08/13 10:37:51;;;;;;;2.63;1.30;;;;;;;;;;5069278;28;20083;-36
2023/08/13 10:40:19;;;;;;;2.03;1.25;;;23.10;82.50;;;;;;5056703;28;20044;-35
2023/08/13 10:42:50;;;;;;;2.38;1.30;;;22.60;66.20;;;;;;5052745;28;20049;-34
2023/08/13 10:45:17;;;;;;;2.47;1.50;;;22.50;72.30;;;;;;5072017;28;20098;-36
2023/08/13 10:47:52;;;;;;;2.72;1.20;;;22.70;66.20;;;;;;5073156;28;20497;-35
2023/08/13 10:50:27;;;;;;;2.92;1.50;;;21.80;81.60;;;;;;5073078;28;20128;-36
2023/08/13 10:52:55;;;;;;;2.50;1.40;;;21.70;68.10;;;;;;5072832;28;20055;-36
2023/08/13 10:55:25;;;;;;;1.95;1.20;;;22.60;82.40;;;;;;5072813;28;20135;-37
2023/08/13 10:57:52;;;;;;;2.58;1.30;;;22.50;67.70;;;;;;5062379;28;20080;-35
2023/08/13 11:00:19;;;;;;;2.58;1.40;;;22.50;80.40;;;;;;5067979;28;20123;-38
2023/08/13 11:02:50;;;;;;;2.47;1.20;;;22.70;66.30;;;;;;5071963;28;20044;-33
2023/08/13 11:05:17;;;;;;;1.58;1.38;;;22.70;80.50;;;;;;5072756;28;20127;-35
2023/08/13 11:07:44;;;;;;;3.28;1.40;;;;;;;;;;5072737;28;20449;-36
2023/08/13 11:10:18;;;;;;;3.38;1.45;;;21.90;70.40;;;;;;5071906;28;20044;-36
2023/08/13 11:12:46;;;;;;;2.05;1.23;;;22.60;68.20;;;;;;5072358;28;20409;-35
2023/08/13 11:15:13;;;;;;;2.38;1.40;;;;;;;;;;5072773;28;20131;-34
2023/08/13 11:17:41;;;;;;;1.63;1.10;;;22.50;82.30;;;;;;5072736;28;20190;-38
2023/08/13 11:20:10;;;;;;;1.92;1.27;;;22.40;74.80;;;;;;5072059;28;20421;-36
2023/08/13 11:22:37;;;;;;;2.30;1.48;;;;;;;;;;5071926;28;20044;-35
2023/08/13 11:25:05;;;;;;;1.83;1.20;;;23.80;70.60;;;;;;5071296;28;20135;-35
2023/08/13 11:27:31;;;;;;;3.00;1.50;;;22.40;76.10;;;;;;5072387;28;20080;-35
2023/08/13 11:29:59;;;;;;;2.42;1.30;;;22.40;83.30;;;;;;5070826;28;20456;-39
2023/08/13 11:32:26;;;;;;;2.13;1.20;;;22.00;80.20;;;;;;5072016;28;20119;-36
2023/08/13 11:34:52;;;;;;;1.83;1.20;;;22.10;82.40;;;;;;5072154;28;20132;-35
2023/08/13 11:37:21;;;;;;;2.72;1.20;;;22.60;66.40;;;;;;5071450;28;20594;-36
2023/08/13 11:39:48;;;;;;;3.08;1.40;;;22.60;80.90;;;;;;5072092;28;20139;-37
2023/08/13 11:42:15;;;;;;;2.05;1.27;;;22.00;82.40;;;;;;5062467;28;20124;-39
2023/08/13 11:44:41;;;;;;;2.58;1.40;;;22.40;82.50;;;;;;5051669;28;20124;-37
2023/08/13 11:47:09;;;;;;;4.05;1.10;;;22.90;75.70;;;;;;5052062;28;20103;-35
2023/08/13 11:49:41;;;;;;;2.88;1.27;;;22.60;66.60;;;;;;5051945;28;20076;-33
2023/08/13 11:52:10;;;;;;;2.13;1.30;;;24.00;73.10;;;;;;5051902;28;20060;-36
2023/08/13 11:54:38;;;;;;;2.25;1.30;;;23.50;84.20;;;;;;5051810;28;20132;-39
2023/08/13 11:57:05;;;;;;;1.88;1.30;;;23.00;83.30;;;;;;5056996;28;20378;-38
2023/08/13 11:59:32;;;;;;;2.00;1.30;;;;;;;;;;5070025;28;20128;-34
2023/08/13 12:02:00;;;;;;;2.88;1.42;;;22.30;83.80;;;;;;5071675;28;20136;-35
2023/08/13 12:04:31;;;;;;;2.40;1.23;;;22.20;80.20;;;;;;5062142;28;20127;-34
2023/08/13 12:06:58;;;;;;;3.00;1.42;;;22.60;83.60;;;;;;5060458;28;20131;-38
2023/08/13 12:09:25;;;;;;;3.15;1.20;;;;;;;;;;5051178;28;20132;-35
2023/08/13 12:11:54;;;;;;;2.35;1.20;;;22.90;71.50;;;;;;5051162;28;20132;-38
2023/08/13 12:14:21;;;;;;;2.00;1.13;;;22.40;83.30;;;;;;5051169;28;20147;-36
2023/08/13 12:16:48;;;;;;;3.25;1.52;;;;;;;;;;5058045;28;20159;-38
2023/08/13 12:19:15;;;;;;;3.22;1.50;;;;;;;;;;5071329;28;20127;-36
2023/08/13 12:21:42;;;;;;;1.70;1.20;;;22.40;67.30;;;;;;5071264;28;20127;-35
2023/08/13 12:24:10;;;;;;;1.90;1.30;;;21.30;70.40;;;;;;5070884;28;20136;-35
2023/08/13 12:26:37;;;;;;;2.60;1.33;;;;;;;;;;5071205;28;20084;-36
2023/08/13 12:29:05;;;;;;;1.63;1.20;;;22.40;67.40;;;;;;5061670;28;20064;-36
2023/08/13 12:31:32;;;;;;;1.70;1.23;;;;;;;;;;5050833;28;20136;-36
2023/08/13 12:33:59;;;;;;;2.15;1.20;;;;;;;;;;5051160;28;20068;-35
2023/08/13 12:36:26;;;;;;;1.58;1.20;;;22.20;83.50;;;;;;5055640;28;20123;-35
2023/08/13 12:38:53;;;;;;;3.38;1.27;;;;;;;;;;5070882;28;20553;-35
2023/08/13 12:41:20;;;;;;;4.30;1.48;;;22.20;83.60;;;;;;5070560;28;20557;-36
2023/08/13 12:43:48;;;;;;;1.60;1.25;;;22.10;73.60;;;;;;5070681;28;20127;-36
2023/08/13 12:46:17;;;;;;;2.53;1.20;;;22.30;67.50;;;;;;5056924;28;20409;-32
2023/08/13 12:48:44;;;;;;;5.95;1.30;;;;;;;;;;5051042;28;20140;-36
2023/08/13 12:51:11;;;;;;;2.08;1.20;;;;;;;;;;5050630;28;20561;-35
2023/08/13 12:53:38;;;;;;;2.28;1.23;;;;;;;;;;5050364;28;20511;-35
2023/08/13 12:56:05;;;;;;;1.70;1.33;;;22.40;77.00;;;;;;5050820;28;20171;-35
2023/08/13 12:58:32;;;;;;;1.95;1.10;;;22.20;81.20;;;;;;5051152;28;20049;-37
2023/08/13 13:00:59;;;;;;;3.40;1.48;;;22.40;84.10;;;;;;5062130;28;20052;-34
2023/08/13 13:03:28;;;;;;;2.47;1.40;;;22.40;67.70;;;;;;5050184;28;20060;-34
2023/08/13 13:05:55;;;;;;;2.00;1.40;;;;;;;;;;5062346;28;20049;-34
2023/08/13 13:08:22;;;;;;;3.28;1.40;;;21.80;83.40;;;;;;5070520;28;20136;-38
2023/08/13 13:10:48;;;;;;;3.05;1.30;;;22.20;69.70;;;;;;5070583;28;20127;-35
2023/08/13 13:13:15;;;;;;;4.72;1.58;;;22.40;83.70;;;;;;5069870;28;20123;-38
2023/08/13 13:15:42;;;;;;;2.78;1.27;;;21.60;80.20;;;;;;5070729;28;20466;-40
2023/08/13 13:18:09;;;;;;;2.67;1.45;;;21.60;69.70;;;;;;5070587;28;20132;-33